KNBG

New Orleans NAS JRB / Alvin Callender Field Airport

New Orleans, Louisiana, USA
METAR KNBG 270655Z AUTO 00000KT 10SM CLR 21/21 A2981 RMK AO2 SLP094 T02060206 PWINO $
Observed Flight Rules
May-27 @ 06:55 UTC (49 minutes ago) Visual Flight Rules
Visibility Clouds
10 miles
  • Clear skies
Temperatures Readings
Current 21°C / 70°F
Dewpoint 21°C / 70°F
Humidity 100%
Altimeter 29.81" Hg
Pressure 1009.4 hPa
Elevation 1
METAR KNBG 270655Z AUTO 00000KT 10SM CLR 21/21 A2981 RMK AO2 SLP094 T02060206 PWINO $
Observed Flight Rules
May-27 @ 06:55 UTC
(49 minutes ago)
VFR
Clouds
  • Clear skies
Temperature Dewpoint
21°C / 70°F 21°C / 70°F
Humidity Altimeter Pressure
100% 29.81" Hg 1009.4 hPa